createdAt,value
2022-09-04T00:02:10.263Z,100787.47
2022-09-04T00:04:51.339Z,100779.59
2022-09-04T00:07:28.489Z,100780.38
2022-09-04T00:10:11.514Z,100781.13
2022-09-04T00:12:47.502Z,100781.97
2022-09-04T00:15:22.225Z,100785.03
2022-09-04T00:17:58.613Z,100777.44
2022-09-04T00:20:37.830Z,100775.00
2022-09-04T00:23:15.033Z,100771.56
2022-09-04T00:25:54.676Z,100775.56
2022-09-04T00:28:34.941Z,100774.72
2022-09-04T00:31:14.635Z,100764.69
2022-09-04T00:33:50.158Z,100772.41
2022-09-04T00:36:19.660Z,100773.25
2022-09-04T00:38:54.970Z,100775.00
2022-09-04T00:41:31.878Z,100783.31
2022-09-04T00:44:28.450Z,100782.56
2022-09-04T00:47:18.962Z,100773.09
2022-09-04T00:50:12.061Z,100783.34
2022-09-04T00:52:59.686Z,100784.44
2022-09-04T00:55:56.954Z,100778.06
2022-09-04T00:58:59.195Z,100782.47
2022-09-04T01:01:29.074Z,100783.47
2022-09-04T01:04:19.440Z,100785.38
2022-09-04T01:06:59.594Z,100785.66
2022-09-04T01:09:59.842Z,100792.81
2022-09-04T01:12:39.760Z,100791.94
2022-09-04T01:15:15.770Z,100793.91
2022-09-04T01:17:56.561Z,100796.25
2022-09-04T01:20:47.046Z,100784.22
2022-09-04T01:23:44.335Z,100787.75
2022-09-04T01:26:20.974Z,100787.41
2022-09-04T01:29:03.209Z,100793.66
2022-09-04T01:31:40.562Z,100799.06
2022-09-04T01:34:23.035Z,100794.28
2022-09-04T01:36:57.445Z,100794.53
2022-09-04T01:39:31.599Z,100793.09
2022-09-04T01:42:06.542Z,100790.84
2022-09-04T01:44:34.811Z,100787.41
2022-09-04T01:47:12.677Z,100791.97
2022-09-04T01:49:47.202Z,100788.41
2022-09-04T01:52:36.696Z,100790.38
2022-09-04T01:55:20.184Z,100792.09
2022-09-04T01:57:58.357Z,100789.13
2022-09-04T02:00:31.438Z,100781.78
2022-09-04T02:03:08.657Z,100778.56
2022-09-04T02:05:49.649Z,100792.31
2022-09-04T02:08:36.517Z,100796.50
2022-09-04T02:11:10.766Z,100791.41
2022-09-04T02:13:56.497Z,100800.69
2022-09-04T02:16:34.239Z,100790.63
2022-09-04T02:19:13.489Z,100797.75
2022-09-04T02:21:46.018Z,100800.06
2022-09-04T02:24:25.472Z,100815.72
2022-09-04T02:26:59.598Z,100808.34
2022-09-04T02:29:35.024Z,100807.97
2022-09-04T02:32:06.638Z,100810.53
2022-09-04T02:34:43.966Z,100806.88
2022-09-04T02:37:19.792Z,100803.44
2022-09-04T02:39:58.657Z,100795.56
2022-09-04T02:42:32.696Z,100799.00
2022-09-04T02:45:14.665Z,100802.19
2022-09-04T02:47:50.161Z,100806.88
2022-09-04T02:50:31.032Z,100795.78
2022-09-04T02:53:11.151Z,100798.03
2022-09-04T02:55:54.181Z,100806.59
2022-09-04T02:58:36.934Z,100807.22
2022-09-04T03:01:15.182Z,100805.91
2022-09-04T03:03:49.264Z,100808.00
2022-09-04T03:06:23.911Z,100802.81
2022-09-04T03:08:57.203Z,100799.25
2022-09-04T03:11:33.050Z,100797.69
2022-09-04T03:14:08.197Z,100797.31
2022-09-04T03:16:44.682Z,100793.09
2022-09-04T03:19:19.902Z,100803.34
2022-09-04T03:21:54.563Z,100804.41
2022-09-04T03:24:27.572Z,100804.94
2022-09-04T03:26:57.835Z,100800.25
2022-09-04T03:29:34.867Z,100809.84
2022-09-04T03:32:16.288Z,100798.03
2022-09-04T03:34:53.443Z,100805.19
2022-09-04T03:37:32.288Z,100811.91
2022-09-04T03:40:13.186Z,100807.13
2022-09-04T03:42:58.786Z,100812.66
2022-09-04T03:45:37.491Z,100806.88
2022-09-04T03:48:17.789Z,100803.34
2022-09-04T03:50:53.604Z,100808.97
2022-09-04T03:53:31.818Z,100811.06
2022-09-04T03:56:31.359Z,100810.22
2022-09-04T03:59:04.998Z,100815.47
2022-09-04T04:01:43.357Z,100812.78
2022-09-04T04:04:44.193Z,100820.44
2022-09-04T04:07:29.284Z,100828.69
2022-09-04T04:10:15.211Z,100818.00
2022-09-04T04:13:12.356Z,100821.81
2022-09-04T04:15:59.236Z,100819.47
2022-09-04T04:18:43.654Z,100827.69
2022-09-04T04:21:23.976Z,100820.31
2022-09-04T04:24:12.484Z,100822.03
2022-09-04T04:26:54.924Z,100815.16
2022-09-04T04:29:50.574Z,100816.84
2022-09-04T04:32:34.498Z,100813.19
2022-09-04T04:35:27.546Z,100821.50
2022-09-04T04:38:09.705Z,100816.00
2022-09-04T04:40:53.932Z,100823.66
2022-09-04T04:43:32.671Z,100826.38
2022-09-04T04:46:09.878Z,100824.88
2022-09-04T04:49:14.316Z,100827.09
2022-09-04T04:52:01.657Z,100833.72
2022-09-04T04:54:52.661Z,100834.94
2022-09-04T04:57:33.148Z,100833.09
2022-09-04T05:00:11.487Z,100829.25
2022-09-04T05:02:51.953Z,100828.16
2022-09-04T05:05:43.759Z,100832.69
2022-09-04T05:08:23.330Z,100832.53
2022-09-04T05:10:57.702Z,100835.13
2022-09-04T05:13:35.562Z,100837.47
2022-09-04T05:16:16.650Z,100839.81
2022-09-04T05:18:56.126Z,100841.88
2022-09-04T05:21:32.289Z,100848.38
2022-09-04T05:24:09.916Z,100848.59
2022-09-04T05:26:47.977Z,100846.16
2022-09-04T05:29:27.221Z,100850.19
2022-09-04T05:32:03.182Z,100855.94
2022-09-04T05:34:38.143Z,100858.25
2022-09-04T05:37:16.486Z,100865.34
2022-09-04T05:39:55.799Z,100868.78
2022-09-04T05:42:45.537Z,100868.03
2022-09-04T05:45:24.432Z,100861.69
2022-09-04T05:48:02.867Z,100866.44
2022-09-04T05:50:57.197Z,100865.69
2022-09-04T05:53:59.158Z,100874.88
2022-09-04T05:56:56.763Z,100874.34
2022-09-04T05:59:48.987Z,100885.13
2022-09-04T06:02:48.290Z,100886.75
2022-09-04T06:05:39.203Z,100890.41
2022-09-04T06:08:24.129Z,100893.00
2022-09-04T06:11:07.522Z,100889.03
2022-09-04T06:14:02.857Z,100908.84
2022-09-04T06:16:46.128Z,100897.59
2022-09-04T06:19:30.432Z,100908.66
2022-09-04T06:22:26.270Z,100910.06
2022-09-04T06:25:13.669Z,100903.66
2022-09-04T06:28:09.480Z,100905.78
2022-09-04T06:30:45.866Z,100907.06
2022-09-04T06:33:38.802Z,100912.38
2022-09-04T06:36:25.856Z,100918.16
2022-09-04T06:39:21.526Z,100926.94
2022-09-04T06:42:06.017Z,100924.09
2022-09-04T06:44:48.161Z,100926.03
2022-09-04T06:47:26.273Z,100927.78
2022-09-04T06:50:12.230Z,100931.00
2022-09-04T06:52:48.329Z,100930.53
2022-09-04T06:55:28.857Z,100929.69
2022-09-04T06:58:19.741Z,100932.28
2022-09-04T07:00:54.244Z,100939.16
2022-09-04T07:03:38.248Z,100936.25
2022-09-04T07:06:15.319Z,100933.69
2022-09-04T07:09:00.369Z,100936.28
2022-09-04T07:11:46.025Z,100939.50
2022-09-04T07:14:35.811Z,100944.53
2022-09-04T07:17:16.049Z,100944.16
2022-09-04T07:19:56.008Z,100942.72
2022-09-04T07:22:49.145Z,100948.72
2022-09-04T07:25:26.302Z,100948.50
2022-09-04T07:28:15.887Z,100954.53
2022-09-04T07:30:49.874Z,100957.69
2022-09-04T07:33:29.491Z,100959.50
2022-09-04T07:36:08.137Z,100954.94
2022-09-04T07:38:50.435Z,100958.81
2022-09-04T07:41:31.353Z,100962.25
2022-09-04T07:44:07.023Z,100964.16
2022-09-04T07:46:47.047Z,100960.19
2022-09-04T07:49:24.041Z,100957.34
2022-09-04T07:51:59.578Z,100961.66
2022-09-04T07:55:00.874Z,100960.84
2022-09-04T07:57:47.561Z,100968.22
2022-09-04T08:00:18.206Z,100964.50
2022-09-04T08:03:30.557Z,100973.91
2022-09-04T08:06:11.786Z,100975.03
2022-09-04T08:08:59.047Z,100973.66
2022-09-04T08:11:42.583Z,100968.97
2022-09-04T08:14:24.885Z,100976.88
2022-09-04T08:17:07.463Z,100973.22
2022-09-04T08:19:45.660Z,100981.00
2022-09-04T08:22:20.043Z,100976.19
2022-09-04T08:25:18.290Z,100985.75
2022-09-04T08:28:10.571Z,100985.31
2022-09-04T08:30:47.559Z,100983.78
2022-09-04T08:33:32.421Z,100978.91
2022-09-04T08:36:04.415Z,100985.75
2022-09-04T08:38:56.589Z,100983.16
2022-09-04T08:42:00.398Z,100990.91
2022-09-04T08:45:22.279Z,100980.84
2022-09-04T08:48:32.593Z,100996.03
2022-09-04T08:51:45.816Z,101005.31
2022-09-04T08:54:48.481Z,101002.59
2022-09-04T08:57:40.341Z,101003.91
2022-09-04T09:00:15.285Z,101001.63
2022-09-04T09:03:22.739Z,101005.91
2022-09-04T09:06:33.070Z,101000.78
2022-09-04T09:09:33.910Z,101003.34
2022-09-04T09:12:41.243Z,101010.22
2022-09-04T09:15:43.473Z,101004.31
2022-09-04T09:18:35.821Z,101006.25
2022-09-04T09:21:09.874Z,101004.63
2022-09-04T09:23:45.757Z,101008.69
2022-09-04T09:26:26.667Z,101011.63
2022-09-04T09:29:30.516Z,101017.34
2022-09-04T09:32:39.877Z,101015.63
2022-09-04T09:35:34.092Z,101012.25
2022-09-04T09:38:35.542Z,101009.50
2022-09-04T09:41:39.440Z,101011.66
2022-09-04T09:44:52.806Z,101009.41
2022-09-04T09:47:56.521Z,101003.47
2022-09-04T09:51:10.670Z,101009.41
2022-09-04T09:54:26.823Z,101009.47
2022-09-04T09:57:33.162Z,101010.25
2022-09-04T10:00:17.419Z,101017.03
2022-09-04T10:03:19.472Z,101009.84
2022-09-04T10:06:29.806Z,101003.31
2022-09-04T10:09:28.336Z,101008.81
2022-09-04T10:12:36.697Z,101002.75
2022-09-04T10:15:29.500Z,101006.19
2022-09-04T10:18:49.198Z,100998.22
2022-09-04T10:21:44.947Z,101001.81
2022-09-04T10:24:52.617Z,101000.97
2022-09-04T10:27:49.416Z,101000.69
2022-09-04T10:30:19.975Z,101001.81
2022-09-04T10:33:18.800Z,101003.28
2022-09-04T10:36:06.338Z,100999.66
2022-09-04T10:39:00.500Z,100993.47
2022-09-04T10:41:53.616Z,100987.38
2022-09-04T10:44:46.302Z,100988.34
2022-09-04T10:47:33.118Z,100984.53
2022-09-04T10:50:24.205Z,100984.69
2022-09-04T10:53:21.489Z,100971.13
2022-09-04T10:56:17.100Z,100970.81
2022-09-04T10:59:09.911Z,100966.28
2022-09-04T11:02:03.746Z,100963.13
2022-09-04T11:04:59.918Z,100957.88
2022-09-04T11:07:45.066Z,100963.38
2022-09-04T11:10:32.141Z,100967.31
2022-09-04T11:13:33.874Z,100963.09
2022-09-04T11:16:18.351Z,100959.16
2022-09-04T11:19:21.073Z,100968.94
2022-09-04T11:22:27.678Z,100960.69
2022-09-04T11:25:23.961Z,100950.66
2022-09-04T11:28:15.896Z,100961.06
2022-09-04T11:31:09.496Z,100959.03
2022-09-04T11:33:57.794Z,100958.34
2022-09-04T11:37:18.668Z,100952.50
2022-09-04T11:40:22.613Z,100945.94
2022-09-04T11:43:18.772Z,100952.63
2022-09-04T11:46:04.841Z,100949.22
2022-09-04T11:48:57.216Z,100949.78
2022-09-04T11:51:52.741Z,100948.59
2022-09-04T11:54:44.877Z,100937.84
2022-09-04T11:57:22.902Z,100940.16
2022-09-04T12:00:15.082Z,100935.41
2022-09-04T12:03:03.190Z,100925.25
2022-09-04T12:05:53.867Z,100933.84
2022-09-04T12:08:41.009Z,100931.75
2022-09-04T12:11:42.245Z,100943.63
2022-09-04T12:14:23.633Z,100937.75
2022-09-04T12:17:18.826Z,100928.38
2022-09-04T12:20:19.602Z,100918.31
2022-09-04T12:23:14.197Z,100910.84
2022-09-04T12:26:09.584Z,100910.19
2022-09-04T12:29:30.985Z,100907.47
2022-09-04T12:32:19.882Z,100910.44
2022-09-04T12:35:17.633Z,100912.19
2022-09-04T12:38:06.548Z,100911.69
2022-09-04T12:40:35.898Z,100914.97
2022-09-04T12:43:26.227Z,100906.16
2022-09-04T12:46:09.115Z,100902.56
2022-09-04T12:48:42.276Z,100896.88
2022-09-04T12:51:16.698Z,100896.75
2022-09-04T12:54:09.154Z,100905.78
2022-09-04T12:56:49.601Z,100901.03
2022-09-04T12:59:46.270Z,100903.34
2022-09-04T13:02:24.113Z,100899.44
2022-09-04T13:05:03.923Z,100901.63
2022-09-04T13:07:46.590Z,100888.09
2022-09-04T13:10:24.782Z,100887.97
2022-09-04T13:13:05.213Z,100881.66
2022-09-04T13:15:43.546Z,100884.38
2022-09-04T13:18:25.749Z,100882.91
2022-09-04T13:21:06.616Z,100880.63
2022-09-04T13:23:47.745Z,100877.53
2022-09-04T13:26:36.357Z,100878.91
2022-09-04T13:29:17.033Z,100872.25
2022-09-04T13:32:29.145Z,100877.16
2022-09-04T13:35:09.709Z,100874.28
2022-09-04T13:37:51.965Z,100872.84
2022-09-04T13:40:33.492Z,100871.03
2022-09-04T13:43:41.204Z,100868.22
2022-09-04T13:46:13.651Z,100859.88
2022-09-04T13:48:44.065Z,100860.75
2022-09-04T13:51:17.713Z,100855.53
2022-09-04T13:54:04.991Z,100859.78
2022-09-04T13:56:41.115Z,100857.22
2022-09-04T13:59:16.287Z,100845.81
2022-09-04T14:01:48.142Z,100852.72
2022-09-04T14:04:26.663Z,100851.44
2022-09-04T14:06:59.764Z,100841.91
2022-09-04T14:09:31.861Z,100840.97
2022-09-04T14:12:15.622Z,100851.94
2022-09-04T14:15:09.901Z,100843.91
2022-09-04T14:17:49.732Z,100831.09
2022-09-04T14:20:23.388Z,100827.56
2022-09-04T14:23:03.824Z,100832.28
2022-09-04T14:25:41.109Z,100832.56
2022-09-04T14:28:20.454Z,100828.69
2022-09-04T14:31:02.270Z,100827.94
2022-09-04T14:33:49.698Z,100833.22
2022-09-04T14:36:34.345Z,100838.59
2022-09-04T14:39:16.930Z,100832.31
2022-09-04T14:42:02.325Z,100837.66
2022-09-04T14:44:46.539Z,100824.03
2022-09-04T14:47:25.478Z,100823.13
2022-09-04T14:49:56.370Z,100814.22
2022-09-04T14:52:32.542Z,100822.09
2022-09-04T14:55:03.084Z,100816.31
2022-09-04T14:57:41.330Z,100811.88
2022-09-04T15:00:17.382Z,100813.00
2022-09-04T15:02:52.418Z,100810.13
2022-09-04T15:05:25.043Z,100806.22
2022-09-04T15:07:57.602Z,100810.59
2022-09-04T15:10:31.709Z,100796.78
2022-09-04T15:13:35.308Z,100799.44
2022-09-04T15:16:18.331Z,100795.88
2022-09-04T15:19:13.065Z,100791.31
2022-09-04T15:21:49.295Z,100790.38
2022-09-04T15:24:26.579Z,100789.31
2022-09-04T15:27:03.881Z,100789.00
2022-09-04T15:29:40.769Z,100779.94
2022-09-04T15:32:13.840Z,100775.34
2022-09-04T15:34:42.895Z,100774.81
2022-09-04T15:37:16.387Z,100768.88
2022-09-04T15:39:55.136Z,100761.22
2022-09-04T15:42:37.913Z,100759.56
2022-09-04T15:45:11.103Z,100759.06
2022-09-04T15:48:04.752Z,100765.00
2022-09-04T15:50:37.629Z,100756.59
2022-09-04T15:53:26.821Z,100754.63
2022-09-04T15:56:07.070Z,100748.81
2022-09-04T15:58:43.877Z,100740.25
2022-09-04T16:01:18.639Z,100742.69
2022-09-04T16:04:01.461Z,100740.50
2022-09-04T16:06:32.866Z,100741.13
2022-09-04T16:09:06.893Z,100745.16
2022-09-04T16:11:39.365Z,100739.56
2022-09-04T16:14:09.886Z,100741.34
2022-09-04T16:16:46.651Z,100736.00
2022-09-04T16:19:25.878Z,100736.44
2022-09-04T16:22:07.738Z,100737.41
2022-09-04T16:24:42.294Z,100736.38
2022-09-04T16:27:14.918Z,100731.09
2022-09-04T16:29:48.404Z,100729.53
2022-09-04T16:32:23.421Z,100730.81
2022-09-04T16:34:55.690Z,100733.50
2022-09-04T16:37:31.646Z,100722.38
2022-09-04T16:40:24.403Z,100727.81
2022-09-04T16:43:00.096Z,100729.53
2022-09-04T16:45:35.034Z,100723.97
2022-09-04T16:48:21.953Z,100728.34
2022-09-04T16:51:09.876Z,100734.16
2022-09-04T16:53:58.993Z,100726.47
2022-09-04T16:56:36.840Z,100731.63
2022-09-04T16:59:21.817Z,100725.97
2022-09-04T17:01:57.286Z,100729.59
2022-09-04T17:04:40.102Z,100728.66
2022-09-04T17:07:18.764Z,100731.81
2022-09-04T17:10:01.790Z,100721.69
2022-09-04T17:12:48.361Z,100727.28
2022-09-04T17:15:29.826Z,100726.53
2022-09-04T17:17:59.462Z,100722.19
2022-09-04T17:21:33.558Z,100714.97
2022-09-04T17:29:05.014Z,100716.56
2022-09-04T17:29:08.243Z,100718.38
2022-09-04T17:29:36.201Z,100712.59
2022-09-04T17:32:44.286Z,100713.09
2022-09-04T17:40:32.328Z,100709.50
2022-09-04T17:40:50.142Z,100718.56
2022-09-04T17:41:40.012Z,100709.22
2022-09-04T17:44:26.709Z,100706.09
2022-09-04T17:47:09.977Z,100703.72
2022-09-04T17:49:44.709Z,100709.69
2022-09-04T17:52:22.738Z,100705.34
2022-09-04T17:54:52.806Z,100710.34
2022-09-04T17:57:28.517Z,100716.66
2022-09-04T18:00:04.031Z,100717.00
2022-09-04T18:02:42.389Z,100724.47
2022-09-04T18:05:20.007Z,100720.50
2022-09-04T18:08:09.155Z,100724.63
2022-09-04T18:10:52.368Z,100726.31
2022-09-04T18:13:37.499Z,100730.25
2022-09-04T18:16:19.050Z,100737.66
2022-09-04T18:18:50.794Z,100736.91
2022-09-04T18:21:24.828Z,100734.09
2022-09-04T18:23:58.650Z,100740.78
2022-09-04T18:26:41.222Z,100740.78
2022-09-04T18:31:46.443Z,100753.78
2022-09-04T18:37:15.980Z,100752.06
2022-09-04T18:37:26.393Z,100762.97
2022-09-04T18:39:04.087Z,100766.25
2022-09-04T18:47:14.709Z,100777.47
2022-09-04T18:50:30.007Z,100792.13
2022-09-04T18:50:41.122Z,100789.38
2022-09-04T18:51:19.534Z,100795.41
2022-09-04T18:53:43.863Z,100797.31
2022-09-04T18:56:20.859Z,100803.72
2022-09-04T18:58:59.588Z,100809.19
2022-09-04T19:01:34.475Z,100812.16
2022-09-04T19:04:41.627Z,100816.78
2022-09-04T19:07:13.193Z,100822.47
2022-09-04T19:10:05.061Z,100830.41
2022-09-04T19:12:47.631Z,100834.50
2022-09-04T19:15:57.445Z,100836.56
2022-09-04T19:18:32.177Z,100836.44
2022-09-04T19:21:17.006Z,100833.22
2022-09-04T19:23:51.375Z,100848.81
2022-09-04T19:26:29.656Z,100846.38
2022-09-04T19:29:02.779Z,100855.34
2022-09-04T19:31:39.005Z,100861.88
2022-09-04T19:34:18.778Z,100866.28
2022-09-04T19:36:52.740Z,100873.28
2022-09-04T19:45:17.287Z,100888.72
2022-09-04T19:45:59.933Z,100887.34
2022-09-04T19:46:18.700Z,100896.81
2022-09-04T19:48:32.115Z,100907.00
2022-09-04T19:53:31.896Z,100911.81
2022-09-04T19:54:07.297Z,100911.97
2022-09-04T19:57:31.315Z,100922.03
2022-09-04T19:59:42.246Z,100932.91
2022-09-04T20:02:22.783Z,100934.97
2022-09-04T20:04:57.349Z,100936.69
2022-09-04T20:07:41.141Z,100929.88
2022-09-04T20:10:20.961Z,100933.34
2022-09-04T20:12:56.345Z,100931.72
2022-09-04T20:15:31.575Z,100939.28
2022-09-04T20:18:16.627Z,100943.00
2022-09-04T20:20:56.233Z,100949.56
2022-09-04T20:23:34.230Z,100957.84
2022-09-04T20:26:07.680Z,100958.72
2022-09-04T20:28:48.686Z,100962.16
2022-09-04T20:31:36.968Z,100974.47
2022-09-04T20:34:21.556Z,100972.44
2022-09-04T20:36:57.546Z,100975.72
2022-09-04T20:39:34.297Z,100976.16
2022-09-04T20:42:08.003Z,100985.03
2022-09-04T20:44:44.455Z,100981.03
2022-09-04T20:52:41.636Z,100980.69
2022-09-04T20:52:53.307Z,100987.03
2022-09-04T20:53:32.775Z,100984.44
2022-09-04T20:56:17.141Z,100989.88
2022-09-04T21:03:23.854Z,100989.81
2022-09-04T21:03:24.716Z,100996.03
2022-09-04T21:05:23.546Z,100988.16
2022-09-04T21:07:58.570Z,100990.75
2022-09-04T21:10:33.059Z,100992.59
2022-09-04T21:13:12.228Z,100997.75
2022-09-04T21:15:54.794Z,100998.28
2022-09-04T21:19:28.335Z,101001.72
2022-09-04T21:22:14.102Z,101006.66
2022-09-04T21:25:06.449Z,101013.38
2022-09-04T21:27:54.627Z,101017.38
2022-09-04T21:30:41.859Z,101015.03
2022-09-04T21:33:27.855Z,101025.88
2022-09-04T21:36:26.154Z,101028.38
2022-09-04T21:39:24.733Z,101030.00
2022-09-04T21:42:18.709Z,101034.59
2022-09-04T21:45:24.541Z,101045.59
2022-09-04T21:48:18.440Z,101036.63
2022-09-04T21:51:00.535Z,101040.13
2022-09-04T21:53:57.071Z,101052.00
2022-09-04T22:02:27.187Z,101045.78
2022-09-04T22:02:46.278Z,101046.13
2022-09-04T22:03:36.442Z,101053.19
2022-09-04T22:07:44.783Z,101054.09
2022-09-04T22:13:29.102Z,101066.75
2022-09-04T22:13:44.166Z,101057.72
2022-09-04T22:15:06.796Z,101067.19
2022-09-04T22:18:05.200Z,101072.31
2022-09-04T22:20:54.845Z,101078.75
2022-09-04T22:23:54.818Z,101076.53
2022-09-04T22:26:50.809Z,101088.53
2022-09-04T22:29:39.713Z,101089.13
2022-09-04T22:32:54.726Z,101088.81
2022-09-04T22:36:04.566Z,101089.63
2022-09-04T22:38:54.850Z,101083.53
2022-09-04T22:41:39.680Z,101087.03
2022-09-04T22:44:24.612Z,101086.34
2022-09-04T22:47:30.026Z,101079.84
2022-09-04T22:50:36.273Z,101074.72
2022-09-04T22:53:45.956Z,101071.72
2022-09-04T22:56:24.241Z,101070.81
2022-09-04T22:59:40.209Z,101083.72
2022-09-04T23:03:08.134Z,101074.53
2022-09-04T23:06:52.673Z,101068.22
2022-09-04T23:13:44.685Z,101068.41
2022-09-04T23:14:00.589Z,101058.94
2022-09-04T23:15:44.898Z,101049.66
2022-09-04T23:22:35.455Z,101044.03
2022-09-04T23:26:44.993Z,101054.88
2022-09-04T23:26:48.838Z,101050.44
2022-09-04T23:27:34.905Z,101039.13
2022-09-04T23:30:25.271Z,101039.88
2022-09-04T23:33:40.350Z,101037.47
2022-09-04T23:36:34.989Z,101029.84
2022-09-04T23:39:46.349Z,101033.34
2022-09-04T23:42:32.771Z,101023.75
2022-09-04T23:45:29.154Z,101032.47
2022-09-04T23:48:49.537Z,101023.78
2022-09-04T23:51:27.837Z,101013.47
2022-09-04T23:54:25.228Z,101019.50
2022-09-04T23:57:01.258Z,101023.25
2022-09-04T23:59:42.678Z,101027.31
